sensor_id;sensor_type;location;lat;lon;timestamp;temperature;humidity
21123;DHT22;10719;48.130;11.630;2023-01-19T00:01:12;-0.70;99.90
21123;DHT22;10719;48.130;11.630;2023-01-19T00:03:37;-0.60;99.90
21123;DHT22;10719;48.130;11.630;2023-01-19T00:06:04;-0.70;99.90
21123;DHT22;10719;48.130;11.630;2023-01-19T00:08:30;-0.60;99.90
21123;DHT22;10719;48.130;11.630;2023-01-19T00:10:56;-0.70;99.90
21123;DHT22;10719;48.130;11.630;2023-01-19T00:13:21;-0.70;99.90
21123;DHT22;10719;48.130;11.630;2023-01-19T00:15:47;-0.60;99.90
21123;DHT22;10719;48.130;11.630;2023-01-19T00:18:12;-0.70;99.90
21123;DHT22;10719;48.130;11.630;2023-01-19T00:20:39;-0.70;99.90
21123;DHT22;10719;48.130;11.630;2023-01-19T00:23:05;-0.60;99.90
21123;DHT22;10719;48.130;11.630;2023-01-19T00:25:32;-0.70;99.90
21123;DHT22;10719;48.130;11.630;2023-01-19T00:27:58;-0.60;99.90
21123;DHT22;10719;48.130;11.630;2023-01-19T00:30:24;-0.50;99.90
21123;DHT22;10719;48.130;11.630;2023-01-19T00:32:50;-0.60;99.90
21123;DHT22;10719;48.130;11.630;2023-01-19T00:35:15;-0.70;99.90
21123;DHT22;10719;48.130;11.630;2023-01-19T00:37:41;-0.60;99.90
21123;DHT22;10719;48.130;11.630;2023-01-19T00:40:11;-0.70;99.90
21123;DHT22;10719;48.130;11.630;2023-01-19T00:42:37;-0.70;99.90
21123;DHT22;10719;48.130;11.630;2023-01-19T00:45:07;-0.70;99.90
21123;DHT22;10719;48.130;11.630;2023-01-19T00:47:33;-0.70;99.90
21123;DHT22;10719;48.130;11.630;2023-01-19T00:49:59;-0.70;99.90
21123;DHT22;10719;48.130;11.630;2023-01-19T00:52:24;-0.70;99.90
21123;DHT22;10719;48.130;11.630;2023-01-19T00:54:50;-0.70;99.90
21123;DHT22;10719;48.130;11.630;2023-01-19T00:57:16;-0.70;99.90
21123;DHT22;10719;48.130;11.630;2023-01-19T00:59:43;-0.80;99.90
21123;DHT22;10719;48.130;11.630;2023-01-19T01:02:10;-0.70;99.90
21123;DHT22;10719;48.130;11.630;2023-01-19T01:04:36;-0.70;99.90
21123;DHT22;10719;48.130;11.630;2023-01-19T01:07:02;-0.80;99.90
21123;DHT22;10719;48.130;11.630;2023-01-19T01:09:28;-0.70;99.90
21123;DHT22;10719;48.130;11.630;2023-01-19T01:11:55;-0.70;99.90
21123;DHT22;10719;48.130;11.630;2023-01-19T01:14:21;-0.70;99.90
21123;DHT22;10719;48.130;11.630;2023-01-19T01:16:48;-0.60;99.90
21123;DHT22;10719;48.130;11.630;2023-01-19T01:19:14;-0.50;99.90
21123;DHT22;10719;48.130;11.630;2023-01-19T01:21:39;-0.50;99.90
21123;DHT22;10719;48.130;11.630;2023-01-19T01:24:06;-0.60;99.90
21123;DHT22;10719;48.130;11.630;2023-01-19T01:26:31;-0.60;99.90
21123;DHT22;10719;48.130;11.630;2023-01-19T01:28:57;-0.70;99.90
21123;DHT22;10719;48.130;11.630;2023-01-19T01:31:23;-0.70;99.90
21123;DHT22;10719;48.130;11.630;2023-01-19T01:33:48;-0.80;99.90
21123;DHT22;10719;48.130;11.630;2023-01-19T01:36:14;-0.70;99.90
21123;DHT22;10719;48.130;11.630;2023-01-19T01:38:40;-0.70;99.90
21123;DHT22;10719;48.130;11.630;2023-01-19T01:41:06;-0.70;99.90
21123;DHT22;10719;48.130;11.630;2023-01-19T01:43:50;-0.70;99.90
21123;DHT22;10719;48.130;11.630;2023-01-19T01:46:22;-0.80;99.90
21123;DHT22;10719;48.130;11.630;2023-01-19T01:49:07;-0.80;99.90
21123;DHT22;10719;48.130;11.630;2023-01-19T01:51:41;-0.70;99.90
21123;DHT22;10719;48.130;11.630;2023-01-19T01:54:20;-0.70;99.90
21123;DHT22;10719;48.130;11.630;2023-01-19T01:56:50;-0.70;99.90
21123;DHT22;10719;48.130;11.630;2023-01-19T01:59:38;-0.80;99.90
21123;DHT22;10719;48.130;11.630;2023-01-19T02:02:10;-0.80;99.90
21123;DHT22;10719;48.130;11.630;2023-01-19T02:04:58;-0.80;99.90
21123;DHT22;10719;48.130;11.630;2023-01-19T02:07:53;-0.90;99.90
21123;DHT22;10719;48.130;11.630;2023-01-19T02:10:40;-0.90;99.90
21123;DHT22;10719;48.130;11.630;2023-01-19T02:13:25;-0.90;99.90
21123;DHT22;10719;48.130;11.630;2023-01-19T02:15:59;-0.90;99.90
21123;DHT22;10719;48.130;11.630;2023-01-19T02:18:28;-0.90;99.90
21123;DHT22;10719;48.130;11.630;2023-01-19T02:21:15;-0.90;99.90
21123;DHT22;10719;48.130;11.630;2023-01-19T02:23:52;-0.90;99.90
21123;DHT22;10719;48.130;11.630;2023-01-19T02:26:23;-0.80;99.90
21123;DHT22;10719;48.130;11.630;2023-01-19T02:29:03;-0.90;99.90
21123;DHT22;10719;48.130;11.630;2023-01-19T02:31:30;-1.10;99.90
21123;DHT22;10719;48.130;11.630;2023-01-19T02:33:59;-1.00;99.90
21123;DHT22;10719;48.130;11.630;2023-01-19T02:36:29;-1.00;99.90
21123;DHT22;10719;48.130;11.630;2023-01-19T02:38:56;-0.90;99.90
21123;DHT22;10719;48.130;11.630;2023-01-19T02:41:27;-1.00;99.90
21123;DHT22;10719;48.130;11.630;2023-01-19T02:43:56;-1.00;99.90
21123;DHT22;10719;48.130;11.630;2023-01-19T02:46:23;-1.10;99.90
21123;DHT22;10719;48.130;11.630;2023-01-19T02:48:49;-1.10;99.90
21123;DHT22;10719;48.130;11.630;2023-01-19T02:51:17;-1.10;99.90
21123;DHT22;10719;48.130;11.630;2023-01-19T03:12:53;-1.10;99.90
21123;DHT22;10719;48.130;11.630;2023-01-19T03:15:30;-1.20;99.90
21123;DHT22;10719;48.130;11.630;2023-01-19T03:17:59;-1.10;99.90
21123;DHT22;10719;48.130;11.630;2023-01-19T03:20:26;-1.10;99.90
21123;DHT22;10719;48.130;11.630;2023-01-19T03:22:59;-1.10;99.90
21123;DHT22;10719;48.130;11.630;2023-01-19T03:25:25;-1.10;99.90
21123;DHT22;10719;48.130;11.630;2023-01-19T03:27:52;-1.20;99.90
21123;DHT22;10719;48.130;11.630;2023-01-19T03:30:27;-1.20;99.90
21123;DHT22;10719;48.130;11.630;2023-01-19T03:33:01;-1.20;99.90
21123;DHT22;10719;48.130;11.630;2023-01-19T03:35:31;-1.30;99.90
21123;DHT22;10719;48.130;11.630;2023-01-19T03:37:59;-1.30;99.90
21123;DHT22;10719;48.130;11.630;2023-01-19T03:40:29;-1.30;99.90
21123;DHT22;10719;48.130;11.630;2023-01-19T03:42:55;-1.30;99.90
21123;DHT22;10719;48.130;11.630;2023-01-19T03:45:22;-1.20;99.90
21123;DHT22;10719;48.130;11.630;2023-01-19T03:47:48;-1.30;99.90
21123;DHT22;10719;48.130;11.630;2023-01-19T03:50:22;-1.40;99.90
21123;DHT22;10719;48.130;11.630;2023-01-19T03:53:06;-1.30;99.90
21123;DHT22;10719;48.130;11.630;2023-01-19T03:55:32;-1.40;99.90
21123;DHT22;10719;48.130;11.630;2023-01-19T03:57:58;-1.40;99.90
21123;DHT22;10719;48.130;11.630;2023-01-19T04:00:24;-1.50;99.90
21123;DHT22;10719;48.130;11.630;2023-01-19T04:02:50;-1.50;99.90
21123;DHT22;10719;48.130;11.630;2023-01-19T04:05:16;-1.50;99.90
21123;DHT22;10719;48.130;11.630;2023-01-19T04:07:43;-1.50;99.90
21123;DHT22;10719;48.130;11.630;2023-01-19T04:10:09;-1.60;99.90
21123;DHT22;10719;48.130;11.630;2023-01-19T04:12:37;-1.50;99.90
21123;DHT22;10719;48.130;11.630;2023-01-19T04:15:04;-1.50;99.90
21123;DHT22;10719;48.130;11.630;2023-01-19T04:17:30;-1.50;99.90
21123;DHT22;10719;48.130;11.630;2023-01-19T04:19:56;-1.60;99.90
21123;DHT22;10719;48.130;11.630;2023-01-19T04:22:22;-1.50;99.90
21123;DHT22;10719;48.130;11.630;2023-01-19T04:24:47;-1.60;99.90
21123;DHT22;10719;48.130;11.630;2023-01-19T04:27:13;-1.60;99.90
21123;DHT22;10719;48.130;11.630;2023-01-19T04:29:40;-1.60;99.90
21123;DHT22;10719;48.130;11.630;2023-01-19T04:32:06;-1.60;99.90
21123;DHT22;10719;48.130;11.630;2023-01-19T04:34:32;-1.70;99.90
21123;DHT22;10719;48.130;11.630;2023-01-19T04:36:58;-1.70;99.90
21123;DHT22;10719;48.130;11.630;2023-01-19T04:39:24;-1.60;99.90
21123;DHT22;10719;48.130;11.630;2023-01-19T04:41:49;-1.70;99.90
21123;DHT22;10719;48.130;11.630;2023-01-19T04:44:16;-1.70;99.90
21123;DHT22;10719;48.130;11.630;2023-01-19T04:46:42;-1.60;99.90
21123;DHT22;10719;48.130;11.630;2023-01-19T04:49:08;-1.70;99.90
21123;DHT22;10719;48.130;11.630;2023-01-19T04:51:34;-1.70;99.90
21123;DHT22;10719;48.130;11.630;2023-01-19T04:54:00;-1.70;99.90
21123;DHT22;10719;48.130;11.630;2023-01-19T04:56:27;-1.70;99.90
21123;DHT22;10719;48.130;11.630;2023-01-19T04:58:53;-1.60;99.90
21123;DHT22;10719;48.130;11.630;2023-01-19T05:01:19;-1.70;99.90
21123;DHT22;10719;48.130;11.630;2023-01-19T05:03:45;-1.60;99.90
21123;DHT22;10719;48.130;11.630;2023-01-19T05:06:10;-1.70;99.90
21123;DHT22;10719;48.130;11.630;2023-01-19T05:08:36;-1.70;99.90
21123;DHT22;10719;48.130;11.630;2023-01-19T05:11:01;-1.70;99.90
21123;DHT22;10719;48.130;11.630;2023-01-19T05:13:27;-1.70;99.90
21123;DHT22;10719;48.130;11.630;2023-01-19T05:15:53;-1.80;99.90
21123;DHT22;10719;48.130;11.630;2023-01-19T05:18:18;-1.80;99.90
21123;DHT22;10719;48.130;11.630;2023-01-19T05:20:44;-1.80;99.90
21123;DHT22;10719;48.130;11.630;2023-01-19T05:23:10;-1.80;99.90
21123;DHT22;10719;48.130;11.630;2023-01-19T05:25:35;-1.70;99.90
21123;DHT22;10719;48.130;11.630;2023-01-19T05:28:01;-1.80;99.90
21123;DHT22;10719;48.130;11.630;2023-01-19T05:30:27;-1.80;99.90
21123;DHT22;10719;48.130;11.630;2023-01-19T05:32:53;-1.80;99.90
21123;DHT22;10719;48.130;11.630;2023-01-19T05:35:18;-1.80;99.90
21123;DHT22;10719;48.130;11.630;2023-01-19T05:37:44;-1.80;99.90
21123;DHT22;10719;48.130;11.630;2023-01-19T05:40:10;-1.80;99.90
21123;DHT22;10719;48.130;11.630;2023-01-19T05:42:36;-1.80;99.90
21123;DHT22;10719;48.130;11.630;2023-01-19T05:45:01;-1.90;99.90
21123;DHT22;10719;48.130;11.630;2023-01-19T05:47:30;-1.90;99.90
21123;DHT22;10719;48.130;11.630;2023-01-19T05:49:56;-1.90;99.90
21123;DHT22;10719;48.130;11.630;2023-01-19T05:52:21;-1.90;99.90
21123;DHT22;10719;48.130;11.630;2023-01-19T05:54:49;-1.80;99.90
21123;DHT22;10719;48.130;11.630;2023-01-19T05:57:16;-1.80;99.90
21123;DHT22;10719;48.130;11.630;2023-01-19T05:59:42;-1.80;99.90
21123;DHT22;10719;48.130;11.630;2023-01-19T06:02:08;-1.90;99.90
21123;DHT22;10719;48.130;11.630;2023-01-19T06:04:33;-1.80;99.90
21123;DHT22;10719;48.130;11.630;2023-01-19T06:06:59;-1.80;99.90
21123;DHT22;10719;48.130;11.630;2023-01-19T06:09:26;-1.80;99.90
21123;DHT22;10719;48.130;11.630;2023-01-19T06:11:52;-1.80;99.90
21123;DHT22;10719;48.130;11.630;2023-01-19T06:14:19;-1.80;99.90
21123;DHT22;10719;48.130;11.630;2023-01-19T06:16:45;-1.80;99.90
21123;DHT22;10719;48.130;11.630;2023-01-19T06:19:11;-1.70;99.90
21123;DHT22;10719;48.130;11.630;2023-01-19T06:21:36;-1.60;99.90
21123;DHT22;10719;48.130;11.630;2023-01-19T06:24:02;-1.60;99.90
21123;DHT22;10719;48.130;11.630;2023-01-19T06:26:28;-1.70;99.90
21123;DHT22;10719;48.130;11.630;2023-01-19T06:28:54;-1.70;99.90
21123;DHT22;10719;48.130;11.630;2023-01-19T06:31:19;-1.70;99.90
21123;DHT22;10719;48.130;11.630;2023-01-19T06:33:45;-1.70;99.90
21123;DHT22;10719;48.130;11.630;2023-01-19T06:36:10;-1.70;99.90
21123;DHT22;10719;48.130;11.630;2023-01-19T06:38:36;-1.70;99.90
21123;DHT22;10719;48.130;11.630;2023-01-19T06:41:02;-1.70;99.90
21123;DHT22;10719;48.130;11.630;2023-01-19T06:43:28;-1.70;99.90
21123;DHT22;10719;48.130;11.630;2023-01-19T06:45:55;-1.70;99.90
21123;DHT22;10719;48.130;11.630;2023-01-19T06:48:21;-1.80;99.90
21123;DHT22;10719;48.130;11.630;2023-01-19T06:50:47;-1.80;99.90
21123;DHT22;10719;48.130;11.630;2023-01-19T06:53:14;-1.80;99.90
21123;DHT22;10719;48.130;11.630;2023-01-19T06:55:41;-1.80;99.90
21123;DHT22;10719;48.130;11.630;2023-01-19T06:58:08;-1.70;99.90
21123;DHT22;10719;48.130;11.630;2023-01-19T07:00:34;-1.70;99.90
21123;DHT22;10719;48.130;11.630;2023-01-19T07:03:00;-1.70;99.90
21123;DHT22;10719;48.130;11.630;2023-01-19T07:05:26;-1.60;99.90
21123;DHT22;10719;48.130;11.630;2023-01-19T07:07:52;-1.70;99.90
21123;DHT22;10719;48.130;11.630;2023-01-19T07:10:18;-1.60;99.90
21123;DHT22;10719;48.130;11.630;2023-01-19T07:12:44;-1.70;99.90
21123;DHT22;10719;48.130;11.630;2023-01-19T07:15:13;-1.70;99.90
21123;DHT22;10719;48.130;11.630;2023-01-19T07:17:39;-1.70;99.90
21123;DHT22;10719;48.130;11.630;2023-01-19T07:20:07;-1.50;99.90
21123;DHT22;10719;48.130;11.630;2023-01-19T07:22:33;-1.40;99.90
21123;DHT22;10719;48.130;11.630;2023-01-19T07:24:58;-1.50;99.90
21123;DHT22;10719;48.130;11.630;2023-01-19T07:27:25;-1.70;99.90
21123;DHT22;10719;48.130;11.630;2023-01-19T07:29:52;-1.60;99.90
21123;DHT22;10719;48.130;11.630;2023-01-19T07:32:18;-1.60;99.90
21123;DHT22;10719;48.130;11.630;2023-01-19T07:34:43;-1.60;99.90
21123;DHT22;10719;48.130;11.630;2023-01-19T07:37:09;-1.60;99.90
21123;DHT22;10719;48.130;11.630;2023-01-19T07:39:35;-1.60;99.90
21123;DHT22;10719;48.130;11.630;2023-01-19T07:42:01;-1.60;99.90
21123;DHT22;10719;48.130;11.630;2023-01-19T07:44:26;-1.60;99.90
21123;DHT22;10719;48.130;11.630;2023-01-19T07:46:52;-1.60;99.90
21123;DHT22;10719;48.130;11.630;2023-01-19T07:49:17;-1.60;99.90
21123;DHT22;10719;48.130;11.630;2023-01-19T07:51:43;-1.60;99.90
21123;DHT22;10719;48.130;11.630;2023-01-19T07:54:09;-1.60;99.90
21123;DHT22;10719;48.130;11.630;2023-01-19T07:56:34;-1.60;99.90
21123;DHT22;10719;48.130;11.630;2023-01-19T07:59:00;-1.60;99.90
21123;DHT22;10719;48.130;11.630;2023-01-19T08:01:26;-1.50;99.90
21123;DHT22;10719;48.130;11.630;2023-01-19T08:03:51;-1.50;99.90
21123;DHT22;10719;48.130;11.630;2023-01-19T08:06:22;-1.50;99.90
21123;DHT22;10719;48.130;11.630;2023-01-19T08:08:48;-1.50;99.90
21123;DHT22;10719;48.130;11.630;2023-01-19T08:11:14;-1.40;99.90
21123;DHT22;10719;48.130;11.630;2023-01-19T08:13:40;-1.50;99.90
21123;DHT22;10719;48.130;11.630;2023-01-19T08:16:05;-1.50;99.90
21123;DHT22;10719;48.130;11.630;2023-01-19T08:18:31;-1.40;99.90
21123;DHT22;10719;48.130;11.630;2023-01-19T08:20:58;-1.40;99.90
21123;DHT22;10719;48.130;11.630;2023-01-19T08:23:24;-1.40;99.90
21123;DHT22;10719;48.130;11.630;2023-01-19T08:25:49;-1.40;99.90
21123;DHT22;10719;48.130;11.630;2023-01-19T08:28:16;-1.20;99.90
21123;DHT22;10719;48.130;11.630;2023-01-19T08:30:43;-1.20;99.90
21123;DHT22;10719;48.130;11.630;2023-01-19T08:33:12;-1.20;99.90
21123;DHT22;10719;48.130;11.630;2023-01-19T08:35:40;-1.20;99.90
21123;DHT22;10719;48.130;11.630;2023-01-19T08:38:07;-1.20;99.90
21123;DHT22;10719;48.130;11.630;2023-01-19T08:40:37;-1.20;99.90
21123;DHT22;10719;48.130;11.630;2023-01-19T08:43:05;-1.20;99.90
21123;DHT22;10719;48.130;11.630;2023-01-19T08:45:33;-1.20;99.90
21123;DHT22;10719;48.130;11.630;2023-01-19T08:47:59;-1.20;99.90
21123;DHT22;10719;48.130;11.630;2023-01-19T08:50:30;-1.30;99.90
21123;DHT22;10719;48.130;11.630;2023-01-19T08:52:57;-1.30;99.90
21123;DHT22;10719;48.130;11.630;2023-01-19T08:55:23;-1.20;99.90
21123;DHT22;10719;48.130;11.630;2023-01-19T08:57:52;-1.10;99.90
21123;DHT22;10719;48.130;11.630;2023-01-19T09:00:19;-1.10;99.90
21123;DHT22;10719;48.130;11.630;2023-01-19T09:02:45;-1.00;99.90
21123;DHT22;10719;48.130;11.630;2023-01-19T09:05:11;-1.00;99.90
21123;DHT22;10719;48.130;11.630;2023-01-19T09:07:37;-1.00;99.90
21123;DHT22;10719;48.130;11.630;2023-01-19T09:10:05;-1.00;99.90
21123;DHT22;10719;48.130;11.630;2023-01-19T09:12:31;-0.90;99.90
21123;DHT22;10719;48.130;11.630;2023-01-19T09:14:57;-0.90;99.90
21123;DHT22;10719;48.130;11.630;2023-01-19T09:17:23;-0.90;99.90
21123;DHT22;10719;48.130;11.630;2023-01-19T09:19:48;-0.90;99.90
21123;DHT22;10719;48.130;11.630;2023-01-19T09:22:14;-0.90;99.90
21123;DHT22;10719;48.130;11.630;2023-01-19T09:24:40;-0.70;99.90
21123;DHT22;10719;48.130;11.630;2023-01-19T09:27:05;-0.60;99.90
21123;DHT22;10719;48.130;11.630;2023-01-19T09:29:31;-0.50;99.90
21123;DHT22;10719;48.130;11.630;2023-01-19T09:31:57;-0.70;99.90
21123;DHT22;10719;48.130;11.630;2023-01-19T09:34:22;-0.60;99.90
21123;DHT22;10719;48.130;11.630;2023-01-19T09:36:50;-0.50;99.90
21123;DHT22;10719;48.130;11.630;2023-01-19T09:39:16;-0.60;99.90
21123;DHT22;10719;48.130;11.630;2023-01-19T09:41:46;-0.40;99.90
21123;DHT22;10719;48.130;11.630;2023-01-19T09:44:19;-0.20;99.90
21123;DHT22;10719;48.130;11.630;2023-01-19T09:46:49;-0.20;99.90
21123;DHT22;10719;48.130;11.630;2023-01-19T09:49:38;-0.20;99.90
21123;DHT22;10719;48.130;11.630;2023-01-19T09:52:02;-0.10;99.90
21123;DHT22;10719;48.130;11.630;2023-01-19T09:54:28;-0.30;99.90
21123;DHT22;10719;48.130;11.630;2023-01-19T09:56:55;-0.30;99.90
21123;DHT22;10719;48.130;11.630;2023-01-19T09:59:31;-0.30;99.90
21123;DHT22;10719;48.130;11.630;2023-01-19T10:15:41;-0.20;99.90
21123;DHT22;10719;48.130;11.630;2023-01-19T10:18:27;-0.10;99.90
21123;DHT22;10719;48.130;11.630;2023-01-19T10:21:12;-0.10;99.90
21123;DHT22;10719;48.130;11.630;2023-01-19T10:23:50;0.10;99.90
21123;DHT22;10719;48.130;11.630;2023-01-19T10:26:22;0.20;99.90
21123;DHT22;10719;48.130;11.630;2023-01-19T10:28:50;0.40;99.90
21123;DHT22;10719;48.130;11.630;2023-01-19T10:31:20;0.50;99.90
21123;DHT22;10719;48.130;11.630;2023-01-19T10:33:48;0.60;99.90
21123;DHT22;10719;48.130;11.630;2023-01-19T10:36:27;0.70;99.90
21123;DHT22;10719;48.130;11.630;2023-01-19T10:38:53;0.60;99.90
21123;DHT22;10719;48.130;11.630;2023-01-19T10:41:30;0.50;99.90
21123;DHT22;10719;48.130;11.630;2023-01-19T10:44:01;0.50;99.90
21123;DHT22;10719;48.130;11.630;2023-01-19T10:46:46;0.70;99.90
21123;DHT22;10719;48.130;11.630;2023-01-19T10:49:36;0.60;99.90
21123;DHT22;10719;48.130;11.630;2023-01-19T10:52:23;0.60;99.90
21123;DHT22;10719;48.130;11.630;2023-01-19T10:54:51;0.60;99.90
21123;DHT22;10719;48.130;11.630;2023-01-19T10:57:28;0.80;99.90
21123;DHT22;10719;48.130;11.630;2023-01-19T10:59:55;0.90;99.90
21123;DHT22;10719;48.130;11.630;2023-01-19T11:02:22;1.10;99.90
21123;DHT22;10719;48.130;11.630;2023-01-19T11:04:52;1.30;99.90
21123;DHT22;10719;48.130;11.630;2023-01-19T11:07:26;1.50;99.90
21123;DHT22;10719;48.130;11.630;2023-01-19T11:12:41;1.60;99.90
21123;DHT22;10719;48.130;11.630;2023-01-19T11:15:30;1.60;99.90
21123;DHT22;10719;48.130;11.630;2023-01-19T11:17:56;1.70;99.90
21123;DHT22;10719;48.130;11.630;2023-01-19T11:20:25;1.90;99.90
21123;DHT22;10719;48.130;11.630;2023-01-19T11:25:46;1.80;99.90
21123;DHT22;10719;48.130;11.630;2023-01-19T11:28:23;1.80;99.90
21123;DHT22;10719;48.130;11.630;2023-01-19T11:36:19;2.20;99.90
21123;DHT22;10719;48.130;11.630;2023-01-19T11:38:50;2.20;99.90
21123;DHT22;10719;48.130;11.630;2023-01-19T11:43:56;1.90;99.90
21123;DHT22;10719;48.130;11.630;2023-01-19T11:46:27;1.80;99.90
21123;DHT22;10719;48.130;11.630;2023-01-19T11:49:02;1.70;99.90
21123;DHT22;10719;48.130;11.630;2023-01-19T11:51:34;1.70;99.90
21123;DHT22;10719;48.130;11.630;2023-01-19T11:54:08;2.00;99.90
21123;DHT22;10719;48.130;11.630;2023-01-19T11:56:38;2.10;99.90
21123;DHT22;10719;48.130;11.630;2023-01-19T11:59:04;2.10;99.90
21123;DHT22;10719;48.130;11.630;2023-01-19T12:01:34;2.10;99.90
21123;DHT22;10719;48.130;11.630;2023-01-19T12:04:16;2.10;99.90
21123;DHT22;10719;48.130;11.630;2023-01-19T12:06:50;2.30;99.90
21123;DHT22;10719;48.130;11.630;2023-01-19T12:09:26;2.30;99.90
21123;DHT22;10719;48.130;11.630;2023-01-19T12:11:57;1.90;99.90
21123;DHT22;10719;48.130;11.630;2023-01-19T12:15:03;1.80;99.90
21123;DHT22;10719;48.130;11.630;2023-01-19T12:17:34;1.90;99.90
21123;DHT22;10719;48.130;11.630;2023-01-19T12:20:06;1.80;99.90
21123;DHT22;10719;48.130;11.630;2023-01-19T12:22:49;1.70;99.90
21123;DHT22;10719;48.130;11.630;2023-01-19T12:25:22;1.90;99.90
21123;DHT22;10719;48.130;11.630;2023-01-19T12:27:49;1.50;99.90
21123;DHT22;10719;48.130;11.630;2023-01-19T12:30:27;1.50;99.90
21123;DHT22;10719;48.130;11.630;2023-01-19T12:33:19;1.70;99.90
21123;DHT22;10719;48.130;11.630;2023-01-19T12:36:05;1.60;99.90
21123;DHT22;10719;48.130;11.630;2023-01-19T12:38:49;1.40;99.90
21123;DHT22;10719;48.130;11.630;2023-01-19T12:46:34;1.10;99.90
21123;DHT22;10719;48.130;11.630;2023-01-19T12:52:08;0.90;99.90
21123;DHT22;10719;48.130;11.630;2023-01-19T12:54:34;0.90;99.90
21123;DHT22;10719;48.130;11.630;2023-01-19T12:57:02;1.00;99.90
21123;DHT22;10719;48.130;11.630;2023-01-19T12:59:32;0.90;99.90
21123;DHT22;10719;48.130;11.630;2023-01-19T13:11:11;1.00;99.90
21123;DHT22;10719;48.130;11.630;2023-01-19T13:18:56;1.00;99.90
21123;DHT22;10719;48.130;11.630;2023-01-19T13:21:34;1.00;99.90
21123;DHT22;10719;48.130;11.630;2023-01-19T13:26:31;0.80;99.90
21123;DHT22;10719;48.130;11.630;2023-01-19T13:32:15;0.90;99.90
21123;DHT22;10719;48.130;11.630;2023-01-19T13:34:55;0.80;99.90
21123;DHT22;10719;48.130;11.630;2023-01-19T13:37:26;0.80;99.90
21123;DHT22;10719;48.130;11.630;2023-01-19T13:39:53;0.90;99.90
21123;DHT22;10719;48.130;11.630;2023-01-19T13:44:53;0.80;99.90
21123;DHT22;10719;48.130;11.630;2023-01-19T13:47:41;0.90;99.90
21123;DHT22;10719;48.130;11.630;2023-01-19T13:50:22;0.90;99.90
21123;DHT22;10719;48.130;11.630;2023-01-19T13:52:48;0.90;99.90
21123;DHT22;10719;48.130;11.630;2023-01-19T13:55:16;1.00;99.90
21123;DHT22;10719;48.130;11.630;2023-01-19T13:57:43;0.90;99.90
21123;DHT22;10719;48.130;11.630;2023-01-19T14:00:14;0.90;99.90
21123;DHT22;10719;48.130;11.630;2023-01-19T14:05:23;0.90;99.90
21123;DHT22;10719;48.130;11.630;2023-01-19T14:10:42;1.00;99.90
21123;DHT22;10719;48.130;11.630;2023-01-19T14:13:23;1.00;99.90
21123;DHT22;10719;48.130;11.630;2023-01-19T14:15:54;0.90;99.90
21123;DHT22;10719;48.130;11.630;2023-01-19T14:18:31;0.80;99.90
21123;DHT22;10719;48.130;11.630;2023-01-19T14:23:46;0.80;99.90
21123;DHT22;10719;48.130;11.630;2023-01-19T14:31:45;0.80;99.90
21123;DHT22;10719;48.130;11.630;2023-01-19T14:35:13;0.80;99.90
21123;DHT22;10719;48.130;11.630;2023-01-19T14:37:25;0.90;99.90
21123;DHT22;10719;48.130;11.630;2023-01-19T14:42:26;0.90;99.90
21123;DHT22;10719;48.130;11.630;2023-01-19T14:44:54;1.00;99.90
21123;DHT22;10719;48.130;11.630;2023-01-19T14:47:40;0.90;99.90
21123;DHT22;10719;48.130;11.630;2023-01-19T14:50:21;0.90;99.90
21123;DHT22;10719;48.130;11.630;2023-01-19T14:55:38;0.70;99.90
21123;DHT22;10719;48.130;11.630;2023-01-19T14:58:12;0.70;99.90
21123;DHT22;10719;48.130;11.630;2023-01-19T15:00:39;0.60;99.90
21123;DHT22;10719;48.130;11.630;2023-01-19T15:03:05;0.70;99.90
21123;DHT22;10719;48.130;11.630;2023-01-19T15:05:37;0.60;99.90
21123;DHT22;10719;48.130;11.630;2023-01-19T15:08:03;0.60;99.90
21123;DHT22;10719;48.130;11.630;2023-01-19T15:10:29;0.60;99.90
21123;DHT22;10719;48.130;11.630;2023-01-19T15:12:56;0.50;99.90
21123;DHT22;10719;48.130;11.630;2023-01-19T15:15:33;0.50;99.90
21123;DHT22;10719;48.130;11.630;2023-01-19T15:18:00;0.60;99.90
21123;DHT22;10719;48.130;11.630;2023-01-19T15:20:26;0.60;99.90
21123;DHT22;10719;48.130;11.630;2023-01-19T15:22:52;0.60;99.90
21123;DHT22;10719;48.130;11.630;2023-01-19T15:25:19;0.60;99.90
21123;DHT22;10719;48.130;11.630;2023-01-19T15:27:46;0.60;99.90
21123;DHT22;10719;48.130;11.630;2023-01-19T15:30:20;0.70;99.90
21123;DHT22;10719;48.130;11.630;2023-01-19T15:32:47;0.70;99.90
21123;DHT22;10719;48.130;11.630;2023-01-19T15:35:18;0.60;99.90
21123;DHT22;10719;48.130;11.630;2023-01-19T15:37:44;0.60;99.90
21123;DHT22;10719;48.130;11.630;2023-01-19T15:40:10;0.60;99.90
21123;DHT22;10719;48.130;11.630;2023-01-19T15:42:36;0.60;99.90
21123;DHT22;10719;48.130;11.630;2023-01-19T15:45:02;0.50;99.90
21123;DHT22;10719;48.130;11.630;2023-01-19T15:47:41;0.50;99.90
21123;DHT22;10719;48.130;11.630;2023-01-19T15:50:07;0.50;99.90
21123;DHT22;10719;48.130;11.630;2023-01-19T15:52:33;0.50;99.90
21123;DHT22;10719;48.130;11.630;2023-01-19T15:54:58;0.40;99.90
21123;DHT22;10719;48.130;11.630;2023-01-19T15:57:24;0.40;99.90
21123;DHT22;10719;48.130;11.630;2023-01-19T15:59:49;0.40;99.90
21123;DHT22;10719;48.130;11.630;2023-01-19T16:02:15;0.40;99.90
21123;DHT22;10719;48.130;11.630;2023-01-19T16:04:41;0.40;99.90
21123;DHT22;10719;48.130;11.630;2023-01-19T16:07:06;0.30;99.90
21123;DHT22;10719;48.130;11.630;2023-01-19T16:09:32;0.30;99.90
21123;DHT22;10719;48.130;11.630;2023-01-19T16:11:57;0.30;99.90
21123;DHT22;10719;48.130;11.630;2023-01-19T16:14:23;0.30;99.90
21123;DHT22;10719;48.130;11.630;2023-01-19T16:16:49;0.30;99.90
21123;DHT22;10719;48.130;11.630;2023-01-19T16:19:14;0.30;99.90
21123;DHT22;10719;48.130;11.630;2023-01-19T16:21:40;0.30;99.90
21123;DHT22;10719;48.130;11.630;2023-01-19T16:24:08;0.30;99.90
21123;DHT22;10719;48.130;11.630;2023-01-19T16:26:33;0.30;99.90
21123;DHT22;10719;48.130;11.630;2023-01-19T16:29:02;0.30;99.90
21123;DHT22;10719;48.130;11.630;2023-01-19T16:31:32;0.30;99.90
21123;DHT22;10719;48.130;11.630;2023-01-19T16:33:57;0.30;99.90
21123;DHT22;10719;48.130;11.630;2023-01-19T16:36:26;0.30;99.90
21123;DHT22;10719;48.130;11.630;2023-01-19T16:38:52;0.30;99.90
21123;DHT22;10719;48.130;11.630;2023-01-19T16:41:18;0.20;99.90
21123;DHT22;10719;48.130;11.630;2023-01-19T16:43:49;0.20;99.90
21123;DHT22;10719;48.130;11.630;2023-01-19T16:46:19;0.20;99.90
21123;DHT22;10719;48.130;11.630;2023-01-19T16:48:45;0.20;99.90
21123;DHT22;10719;48.130;11.630;2023-01-19T16:51:10;0.10;99.90
21123;DHT22;10719;48.130;11.630;2023-01-19T16:53:36;0.10;99.90
21123;DHT22;10719;48.130;11.630;2023-01-19T16:56:14;0.20;99.90
21123;DHT22;10719;48.130;11.630;2023-01-19T16:58:40;0.20;99.90
21123;DHT22;10719;48.130;11.630;2023-01-19T17:01:08;0.20;99.90
21123;DHT22;10719;48.130;11.630;2023-01-19T17:03:34;0.10;99.90
21123;DHT22;10719;48.130;11.630;2023-01-19T17:05:59;0.10;99.90
21123;DHT22;10719;48.130;11.630;2023-01-19T17:08:25;0.10;99.90
21123;DHT22;10719;48.130;11.630;2023-01-19T17:10:51;0.10;99.90